sensor_id;sensor_type;location;lat;lon;timestamp;pressure;altitude;pressure_sealevel;temperature;humidity
70954;BME280;58618;47.490;8.736;2023-02-20T00:00:54;97754.09;;;7.52;95.02
70954;BME280;58618;47.490;8.736;2023-02-20T00:03:23;97755.53;;;7.48;94.64
70954;BME280;58618;47.490;8.736;2023-02-20T00:05:50;97754.75;;;7.47;95.32
70954;BME280;58618;47.490;8.736;2023-02-20T00:08:17;97750.84;;;7.45;96.13
70954;BME280;58618;47.490;8.736;2023-02-20T00:10:45;97749.28;;;7.44;95.26
70954;BME280;58618;47.490;8.736;2023-02-20T00:13:12;97758.44;;;7.40;95.20
70954;BME280;58618;47.490;8.736;2023-02-20T00:15:39;97752.84;;;7.43;95.19
70954;BME280;58618;47.490;8.736;2023-02-20T00:18:08;97751.75;;;7.39;94.77
70954;BME280;58618;47.490;8.736;2023-02-20T00:20:36;97757.19;;;7.42;94.63
70954;BME280;58618;47.490;8.736;2023-02-20T00:23:03;97759.56;;;7.44;94.65
70954;BME280;58618;47.490;8.736;2023-02-20T00:25:30;97765.47;;;7.44;94.54
70954;BME280;58618;47.490;8.736;2023-02-20T00:27:57;97763.44;;;7.46;94.94
70954;BME280;58618;47.490;8.736;2023-02-20T00:30:24;97763.00;;;7.38;94.26
70954;BME280;58618;47.490;8.736;2023-02-20T00:32:53;97764.22;;;7.35;95.16
70954;BME280;58618;47.490;8.736;2023-02-20T00:35:23;97761.56;;;7.42;95.66
70954;BME280;58618;47.490;8.736;2023-02-20T00:37:52;97753.03;;;7.30;95.57
70954;BME280;58618;47.490;8.736;2023-02-20T00:40:22;97750.72;;;7.28;95.78
70954;BME280;58618;47.490;8.736;2023-02-20T00:42:50;97766.56;;;7.37;96.63
70954;BME280;58618;47.490;8.736;2023-02-20T00:45:18;97754.06;;;7.29;96.63
70954;BME280;58618;47.490;8.736;2023-02-20T00:47:45;97767.22;;;7.32;95.41
70954;BME280;58618;47.490;8.736;2023-02-20T00:50:14;97780.84;;;7.33;97.11
70954;BME280;58618;47.490;8.736;2023-02-20T00:52:43;97779.97;;;7.39;96.79
70954;BME280;58618;47.490;8.736;2023-02-20T00:55:10;97774.16;;;7.32;97.13
70954;BME280;58618;47.490;8.736;2023-02-20T00:57:38;97782.97;;;7.36;97.80
70954;BME280;58618;47.490;8.736;2023-02-20T01:00:06;97771.00;;;7.30;98.35
70954;BME280;58618;47.490;8.736;2023-02-20T01:02:34;97777.72;;;7.31;98.05
70954;BME280;58618;47.490;8.736;2023-02-20T01:05:02;97781.72;;;7.27;96.90
70954;BME280;58618;47.490;8.736;2023-02-20T01:07:29;97777.03;;;7.24;97.94
70954;BME280;58618;47.490;8.736;2023-02-20T01:09:58;97768.63;;;7.16;98.58
70954;BME280;58618;47.490;8.736;2023-02-20T01:12:25;97781.16;;;7.25;98.28
70954;BME280;58618;47.490;8.736;2023-02-20T01:14:52;97761.13;;;7.03;98.04
70954;BME280;58618;47.490;8.736;2023-02-20T01:17:20;97784.47;;;7.13;98.09
70954;BME280;58618;47.490;8.736;2023-02-20T01:19:47;97775.88;;;7.19;98.15
70954;BME280;58618;47.490;8.736;2023-02-20T01:22:14;97771.66;;;7.25;98.11
70954;BME280;58618;47.490;8.736;2023-02-20T01:24:41;97769.34;;;7.24;98.44
70954;BME280;58618;47.490;8.736;2023-02-20T01:27:10;97773.56;;;7.18;99.07
70954;BME280;58618;47.490;8.736;2023-02-20T01:29:37;97758.25;;;7.11;98.71
70954;BME280;58618;47.490;8.736;2023-02-20T01:32:04;97768.63;;;7.16;97.73
70954;BME280;58618;47.490;8.736;2023-02-20T01:34:32;97774.97;;;7.02;98.22
70954;BME280;58618;47.490;8.736;2023-02-20T01:36:59;97775.50;;;7.04;97.06
70954;BME280;58618;47.490;8.736;2023-02-20T01:39:27;97773.06;;;7.09;98.39
70954;BME280;58618;47.490;8.736;2023-02-20T01:41:58;97767.94;;;7.09;97.48
70954;BME280;58618;47.490;8.736;2023-02-20T01:44:29;97767.53;;;7.12;98.30
70954;BME280;58618;47.490;8.736;2023-02-20T01:46:57;97769.09;;;7.13;97.57
70954;BME280;58618;47.490;8.736;2023-02-20T01:49:30;97772.66;;;7.12;97.82
70954;BME280;58618;47.490;8.736;2023-02-20T01:52:04;97772.72;;;7.06;97.28
70954;BME280;58618;47.490;8.736;2023-02-20T01:54:33;97780.09;;;7.14;98.37
70954;BME280;58618;47.490;8.736;2023-02-20T01:57:03;97788.56;;;7.03;97.19
70954;BME280;58618;47.490;8.736;2023-02-20T01:59:37;97783.19;;;7.04;99.50
70954;BME280;58618;47.490;8.736;2023-02-20T02:02:05;97776.38;;;6.98;99.25
70954;BME280;58618;47.490;8.736;2023-02-20T02:04:35;97780.75;;;6.98;99.03
70954;BME280;58618;47.490;8.736;2023-02-20T02:07:03;97773.25;;;6.96;99.29
70954;BME280;58618;47.490;8.736;2023-02-20T02:09:37;97774.97;;;7.02;100.00
70954;BME280;58618;47.490;8.736;2023-02-20T02:12:06;97777.94;;;6.99;99.98
70954;BME280;58618;47.490;8.736;2023-02-20T02:14:35;97767.81;;;7.04;97.68
70954;BME280;58618;47.490;8.736;2023-02-20T02:17:17;97773.53;;;7.06;100.00
70954;BME280;58618;47.490;8.736;2023-02-20T02:25:54;97767.25;;;7.02;100.00
70954;BME280;58618;47.490;8.736;2023-02-20T02:32:09;97762.00;;;6.97;100.00
70954;BME280;58618;47.490;8.736;2023-02-20T02:37:47;97762.28;;;6.89;100.00
70954;BME280;58618;47.490;8.736;2023-02-20T02:40:20;97762.88;;;6.91;100.00
70954;BME280;58618;47.490;8.736;2023-02-20T02:42:59;97758.09;;;6.95;100.00
70954;BME280;58618;47.490;8.736;2023-02-20T02:45:35;97756.75;;;6.92;100.00
70954;BME280;58618;47.490;8.736;2023-02-20T02:48:07;97750.84;;;6.92;100.00
70954;BME280;58618;47.490;8.736;2023-02-20T02:50:40;97755.19;;;6.91;100.00
70954;BME280;58618;47.490;8.736;2023-02-20T02:53:12;97741.78;;;6.89;100.00
70954;BME280;58618;47.490;8.736;2023-02-20T02:55:40;97733.38;;;6.70;100.00
70954;BME280;58618;47.490;8.736;2023-02-20T02:58:08;97742.09;;;6.81;100.00
70954;BME280;58618;47.490;8.736;2023-02-20T03:00:39;97748.16;;;6.87;100.00
70954;BME280;58618;47.490;8.736;2023-02-20T03:03:12;97751.25;;;6.89;100.00
70954;BME280;58618;47.490;8.736;2023-02-20T03:05:46;97744.91;;;6.91;100.00
70954;BME280;58618;47.490;8.736;2023-02-20T03:08:22;97749.47;;;6.89;100.00
70954;BME280;58618;47.490;8.736;2023-02-20T03:11:00;97740.66;;;6.85;100.00
70954;BME280;58618;47.490;8.736;2023-02-20T03:13:32;97735.28;;;6.75;100.00
70954;BME280;58618;47.490;8.736;2023-02-20T03:16:22;97732.72;;;6.75;100.00
70954;BME280;58618;47.490;8.736;2023-02-20T03:18:54;97737.72;;;6.70;100.00
70954;BME280;58618;47.490;8.736;2023-02-20T03:21:25;97736.72;;;6.71;100.00
70954;BME280;58618;47.490;8.736;2023-02-20T03:23:57;97734.56;;;6.68;100.00
70954;BME280;58618;47.490;8.736;2023-02-20T03:26:30;97736.28;;;6.56;100.00
70954;BME280;58618;47.490;8.736;2023-02-20T03:29:02;97735.75;;;6.35;100.00
70954;BME280;58618;47.490;8.736;2023-02-20T03:31:35;97714.97;;;6.25;100.00
70954;BME280;58618;47.490;8.736;2023-02-20T03:34:08;97723.72;;;6.18;100.00
70954;BME280;58618;47.490;8.736;2023-02-20T03:36:58;97724.66;;;6.05;100.00
70954;BME280;58618;47.490;8.736;2023-02-20T03:39:48;97707.09;;;5.84;100.00
70954;BME280;58618;47.490;8.736;2023-02-20T03:42:37;97721.72;;;5.77;100.00
70954;BME280;58618;47.490;8.736;2023-02-20T03:45:25;97715.19;;;5.63;100.00
70954;BME280;58618;47.490;8.736;2023-02-20T03:47:56;97720.44;;;5.49;100.00
70954;BME280;58618;47.490;8.736;2023-02-20T03:50:25;97719.25;;;5.45;100.00
70954;BME280;58618;47.490;8.736;2023-02-20T03:52:53;97710.28;;;5.36;100.00
70954;BME280;58618;47.490;8.736;2023-02-20T03:55:23;97710.63;;;5.15;100.00
70954;BME280;58618;47.490;8.736;2023-02-20T03:57:52;97711.34;;;4.97;100.00
70954;BME280;58618;47.490;8.736;2023-02-20T04:00:24;97724.00;;;4.86;100.00
70954;BME280;58618;47.490;8.736;2023-02-20T04:02:56;97711.50;;;4.71;100.00
70954;BME280;58618;47.490;8.736;2023-02-20T04:05:31;97709.22;;;4.56;100.00
70954;BME280;58618;47.490;8.736;2023-02-20T04:08:04;97697.31;;;4.37;100.00
70954;BME280;58618;47.490;8.736;2023-02-20T04:10:36;97697.59;;;4.22;100.00
70954;BME280;58618;47.490;8.736;2023-02-20T04:13:06;97688.00;;;4.11;100.00
70954;BME280;58618;47.490;8.736;2023-02-20T04:15:34;97696.28;;;4.00;100.00
70954;BME280;58618;47.490;8.736;2023-02-20T04:18:04;97693.31;;;3.97;100.00
70954;BME280;58618;47.490;8.736;2023-02-20T04:20:35;97706.09;;;3.97;100.00
70954;BME280;58618;47.490;8.736;2023-02-20T04:23:05;97703.16;;;3.87;100.00
70954;BME280;58618;47.490;8.736;2023-02-20T04:25:39;97705.34;;;3.76;100.00
70954;BME280;58618;47.490;8.736;2023-02-20T04:28:09;97698.91;;;3.61;100.00
70954;BME280;58618;47.490;8.736;2023-02-20T04:30:37;97703.63;;;3.57;100.00
70954;BME280;58618;47.490;8.736;2023-02-20T04:33:04;97708.53;;;3.52;100.00
70954;BME280;58618;47.490;8.736;2023-02-20T04:35:32;97704.44;;;3.38;100.00
70954;BME280;58618;47.490;8.736;2023-02-20T04:37:59;97700.50;;;3.35;100.00
70954;BME280;58618;47.490;8.736;2023-02-20T04:40:26;97701.88;;;3.38;100.00
70954;BME280;58618;47.490;8.736;2023-02-20T04:42:55;97696.97;;;3.36;100.00
70954;BME280;58618;47.490;8.736;2023-02-20T04:45:22;97683.59;;;3.28;100.00
70954;BME280;58618;47.490;8.736;2023-02-20T04:47:49;97696.75;;;3.25;100.00
70954;BME280;58618;47.490;8.736;2023-02-20T04:50:20;97700.50;;;3.16;100.00
70954;BME280;58618;47.490;8.736;2023-02-20T04:52:47;97698.50;;;3.18;100.00
70954;BME280;58618;47.490;8.736;2023-02-20T04:55:14;97676.56;;;3.04;100.00
70954;BME280;58618;47.490;8.736;2023-02-20T04:57:41;97702.03;;;3.04;100.00
70954;BME280;58618;47.490;8.736;2023-02-20T05:00:11;97677.34;;;2.84;100.00
70954;BME280;58618;47.490;8.736;2023-02-20T05:02:40;97698.91;;;3.15;100.00
70954;BME280;58618;47.490;8.736;2023-02-20T05:05:15;97701.06;;;3.18;100.00
70954;BME280;58618;47.490;8.736;2023-02-20T05:07:42;97678.91;;;2.98;100.00
70954;BME280;58618;47.490;8.736;2023-02-20T05:10:12;97700.88;;;3.00;100.00
70954;BME280;58618;47.490;8.736;2023-02-20T05:12:40;97702.22;;;2.82;100.00
70954;BME280;58618;47.490;8.736;2023-02-20T05:15:08;97705.16;;;2.92;100.00
70954;BME280;58618;47.490;8.736;2023-02-20T05:17:37;97693.41;;;2.91;100.00
70954;BME280;58618;47.490;8.736;2023-02-20T05:20:05;97708.88;;;2.96;100.00
70954;BME280;58618;47.490;8.736;2023-02-20T05:22:33;97713.78;;;2.91;100.00
70954;BME280;58618;47.490;8.736;2023-02-20T05:24:59;97713.22;;;2.89;100.00
70954;BME280;58618;47.490;8.736;2023-02-20T05:27:26;97709.84;;;2.82;100.00
70954;BME280;58618;47.490;8.736;2023-02-20T05:29:55;97699.25;;;2.72;100.00
70954;BME280;58618;47.490;8.736;2023-02-20T05:32:24;97703.34;;;2.67;100.00
70954;BME280;58618;47.490;8.736;2023-02-20T05:34:54;97704.94;;;2.68;100.00
70954;BME280;58618;47.490;8.736;2023-02-20T05:37:23;97712.50;;;2.54;100.00
70954;BME280;58618;47.490;8.736;2023-02-20T05:39:50;97701.94;;;2.51;100.00
70954;BME280;58618;47.490;8.736;2023-02-20T05:42:18;97697.22;;;2.54;100.00
70954;BME280;58618;47.490;8.736;2023-02-20T05:44:46;97704.31;;;2.59;100.00
70954;BME280;58618;47.490;8.736;2023-02-20T05:47:14;97685.25;;;2.42;100.00
70954;BME280;58618;47.490;8.736;2023-02-20T05:49:42;97702.91;;;2.50;100.00
70954;BME280;58618;47.490;8.736;2023-02-20T05:52:11;97686.25;;;2.54;100.00
70954;BME280;58618;47.490;8.736;2023-02-20T05:54:39;97681.16;;;2.54;100.00
70954;BME280;58618;47.490;8.736;2023-02-20T05:57:10;97696.06;;;2.50;100.00
70954;BME280;58618;47.490;8.736;2023-02-20T05:59:38;97695.66;;;2.47;100.00
70954;BME280;58618;47.490;8.736;2023-02-20T06:02:05;97703.88;;;2.49;100.00
70954;BME280;58618;47.490;8.736;2023-02-20T06:04:32;97700.75;;;2.47;100.00
70954;BME280;58618;47.490;8.736;2023-02-20T06:06:59;97699.72;;;2.35;100.00
70954;BME280;58618;47.490;8.736;2023-02-20T06:09:28;97681.09;;;2.28;100.00
70954;BME280;58618;47.490;8.736;2023-02-20T06:11:55;97699.13;;;2.33;100.00
70954;BME280;58618;47.490;8.736;2023-02-20T06:14:24;97706.97;;;2.31;100.00
70954;BME280;58618;47.490;8.736;2023-02-20T06:16:52;97697.91;;;2.22;100.00
70954;BME280;58618;47.490;8.736;2023-02-20T06:19:20;97701.84;;;2.25;100.00
70954;BME280;58618;47.490;8.736;2023-02-20T06:21:48;97695.56;;;2.21;100.00
70954;BME280;58618;47.490;8.736;2023-02-20T06:24:15;97694.81;;;2.27;100.00
70954;BME280;58618;47.490;8.736;2023-02-20T06:26:44;97698.72;;;2.29;100.00
70954;BME280;58618;47.490;8.736;2023-02-20T06:29:12;97696.22;;;2.36;100.00
70954;BME280;58618;47.490;8.736;2023-02-20T06:31:40;97688.94;;;2.33;100.00
70954;BME280;58618;47.490;8.736;2023-02-20T06:34:08;97680.72;;;2.31;100.00
70954;BME280;58618;47.490;8.736;2023-02-20T06:36:37;97680.50;;;2.26;100.00
70954;BME280;58618;47.490;8.736;2023-02-20T06:39:06;97682.19;;;2.05;100.00
70954;BME280;58618;47.490;8.736;2023-02-20T06:41:34;97684.13;;;2.03;100.00
70954;BME280;58618;47.490;8.736;2023-02-20T06:44:03;97685.75;;;2.18;100.00
70954;BME280;58618;47.490;8.736;2023-02-20T06:46:30;97700.69;;;2.34;100.00
70954;BME280;58618;47.490;8.736;2023-02-20T06:48:58;97694.06;;;2.39;100.00
70954;BME280;58618;47.490;8.736;2023-02-20T06:51:27;97694.91;;;2.53;100.00
70954;BME280;58618;47.490;8.736;2023-02-20T06:53:54;97683.56;;;2.69;100.00
70954;BME280;58618;47.490;8.736;2023-02-20T06:56:24;97701.41;;;2.82;100.00
70954;BME280;58618;47.490;8.736;2023-02-20T06:58:53;97696.75;;;3.05;100.00
70954;BME280;58618;47.490;8.736;2023-02-20T07:01:23;97700.50;;;3.49;100.00
70954;BME280;58618;47.490;8.736;2023-02-20T07:03:52;97692.69;;;4.08;100.00
70954;BME280;58618;47.490;8.736;2023-02-20T07:06:20;97695.78;;;4.67;100.00
70954;BME280;58618;47.490;8.736;2023-02-20T07:08:47;97695.06;;;5.23;100.00
70954;BME280;58618;47.490;8.736;2023-02-20T07:11:16;97698.69;;;5.77;100.00
70954;BME280;58618;47.490;8.736;2023-02-20T07:13:43;97705.72;;;6.24;97.00
70954;BME280;58618;47.490;8.736;2023-02-20T07:16:10;97709.38;;;6.65;93.98
70954;BME280;58618;47.490;8.736;2023-02-20T07:18:39;97697.69;;;7.10;91.62
70954;BME280;58618;47.490;8.736;2023-02-20T07:21:06;97698.59;;;7.28;90.23
70954;BME280;58618;47.490;8.736;2023-02-20T07:23:34;97701.75;;;7.76;87.06
70954;BME280;58618;47.490;8.736;2023-02-20T07:26:01;97702.19;;;7.96;85.73
70954;BME280;58618;47.490;8.736;2023-02-20T07:28:28;97696.53;;;8.34;85.08
70954;BME280;58618;47.490;8.736;2023-02-20T07:30:55;97704.22;;;8.74;82.75
70954;BME280;58618;47.490;8.736;2023-02-20T07:33:22;97692.94;;;8.92;80.01
70954;BME280;58618;47.490;8.736;2023-02-20T07:35:51;97694.59;;;9.15;79.00
70954;BME280;58618;47.490;8.736;2023-02-20T07:38:18;97694.44;;;9.05;79.50
70954;BME280;58618;47.490;8.736;2023-02-20T07:40:45;97695.94;;;9.34;78.65
70954;BME280;58618;47.490;8.736;2023-02-20T07:43:12;97693.44;;;9.39;77.03
70954;BME280;58618;47.490;8.736;2023-02-20T07:45:40;97671.16;;;8.83;78.00
70954;BME280;58618;47.490;8.736;2023-02-20T07:48:07;97686.66;;;9.16;79.00
70954;BME280;58618;47.490;8.736;2023-02-20T07:50:35;97681.94;;;9.47;76.25
70954;BME280;58618;47.490;8.736;2023-02-20T07:53:04;97688.47;;;9.88;74.62
70954;BME280;58618;47.490;8.736;2023-02-20T07:55:31;97690.06;;;10.15;73.53
70954;BME280;58618;47.490;8.736;2023-02-20T07:57:58;97694.53;;;9.98;74.01
70954;BME280;58618;47.490;8.736;2023-02-20T08:00:26;97684.50;;;10.02;73.57
70954;BME280;58618;47.490;8.736;2023-02-20T08:02:53;97673.66;;;10.43;72.42
70954;BME280;58618;47.490;8.736;2023-02-20T08:05:21;97678.09;;;10.75;71.62
70954;BME280;58618;47.490;8.736;2023-02-20T08:07:49;97666.38;;;10.89;70.65
70954;BME280;58618;47.490;8.736;2023-02-20T08:10:20;97681.88;;;10.89;69.33
70954;BME280;58618;47.490;8.736;2023-02-20T08:12:48;97683.50;;;11.00;69.43
70954;BME280;58618;47.490;8.736;2023-02-20T08:15:17;97677.97;;;11.18;68.61
70954;BME280;58618;47.490;8.736;2023-02-20T08:17:47;97644.97;;;11.25;68.56
70954;BME280;58618;47.490;8.736;2023-02-20T08:20:19;97650.13;;;11.20;68.20
70954;BME280;58618;47.490;8.736;2023-02-20T08:22:48;97660.56;;;11.40;68.43
70954;BME280;58618;47.490;8.736;2023-02-20T08:25:17;97667.28;;;11.78;67.18
70954;BME280;58618;47.490;8.736;2023-02-20T08:27:46;97667.38;;;11.99;65.64
70954;BME280;58618;47.490;8.736;2023-02-20T08:30:16;97664.63;;;12.15;65.58
70954;BME280;58618;47.490;8.736;2023-02-20T08:32:46;97665.94;;;12.28;65.10
70954;BME280;58618;47.490;8.736;2023-02-20T08:35:13;97674.06;;;12.57;64.59
70954;BME280;58618;47.490;8.736;2023-02-20T08:37:40;97673.84;;;12.79;61.66
70954;BME280;58618;47.490;8.736;2023-02-20T08:40:09;97671.97;;;12.59;62.56
70954;BME280;58618;47.490;8.736;2023-02-20T08:42:38;97655.91;;;12.42;63.82
70954;BME280;58618;47.490;8.736;2023-02-20T08:45:07;97669.34;;;12.44;63.17
70954;BME280;58618;47.490;8.736;2023-02-20T08:47:35;97665.78;;;12.65;63.58
70954;BME280;58618;47.490;8.736;2023-02-20T08:50:04;97652.78;;;12.40;64.01
70954;BME280;58618;47.490;8.736;2023-02-20T08:52:31;97661.44;;;11.98;64.96
70954;BME280;58618;47.490;8.736;2023-02-20T08:54:58;97652.22;;;12.22;65.15
70954;BME280;58618;47.490;8.736;2023-02-20T08:57:25;97642.34;;;12.09;65.99
70954;BME280;58618;47.490;8.736;2023-02-20T08:59:54;97643.84;;;11.53;67.01
70954;BME280;58618;47.490;8.736;2023-02-20T09:02:23;97654.50;;;11.62;67.26
70954;BME280;58618;47.490;8.736;2023-02-20T09:04:55;97654.94;;;11.49;68.06
70954;BME280;58618;47.490;8.736;2023-02-20T09:07:23;97640.38;;;11.37;67.66
70954;BME280;58618;47.490;8.736;2023-02-20T09:09:51;97631.09;;;10.99;68.17
70954;BME280;58618;47.490;8.736;2023-02-20T09:12:18;97643.16;;;10.89;67.52
70954;BME280;58618;47.490;8.736;2023-02-20T09:14:45;97642.19;;;10.68;69.37
70954;BME280;58618;47.490;8.736;2023-02-20T09:17:13;97640.88;;;10.66;69.72
70954;BME280;58618;47.490;8.736;2023-02-20T09:19:42;97634.19;;;10.43;70.69
70954;BME280;58618;47.490;8.736;2023-02-20T09:22:10;97636.03;;;10.47;70.98
70954;BME280;58618;47.490;8.736;2023-02-20T09:24:37;97634.00;;;10.49;72.50
70954;BME280;58618;47.490;8.736;2023-02-20T09:27:04;97627.19;;;10.38;73.25
70954;BME280;58618;47.490;8.736;2023-02-20T09:29:32;97626.72;;;10.41;73.95
70954;BME280;58618;47.490;8.736;2023-02-20T09:32:01;97625.44;;;10.44;72.08
70954;BME280;58618;47.490;8.736;2023-02-20T09:34:29;97620.00;;;10.40;70.97
70954;BME280;58618;47.490;8.736;2023-02-20T09:36:57;97599.84;;;10.37;71.78
70954;BME280;58618;47.490;8.736;2023-02-20T09:39:24;97625.81;;;10.57;71.81
70954;BME280;58618;47.490;8.736;2023-02-20T09:42:04;97616.88;;;10.65;70.65
70954;BME280;58618;47.490;8.736;2023-02-20T09:44:38;97624.94;;;10.74;70.66
70954;BME280;58618;47.490;8.736;2023-02-20T09:47:24;97611.84;;;10.80;70.73
70954;BME280;58618;47.490;8.736;2023-02-20T09:49:59;97611.78;;;10.75;70.30
70954;BME280;58618;47.490;8.736;2023-02-20T09:52:33;97612.25;;;10.99;70.76
70954;BME280;58618;47.490;8.736;2023-02-20T09:55:11;97611.41;;;10.88;68.59
70954;BME280;58618;47.490;8.736;2023-02-20T09:57:41;97595.47;;;11.01;71.87
70954;BME280;58618;47.490;8.736;2023-02-20T10:00:13;97600.28;;;11.25;70.42
70954;BME280;58618;47.490;8.736;2023-02-20T10:02:52;97600.63;;;11.38;67.93
70954;BME280;58618;47.490;8.736;2023-02-20T10:05:26;97606.34;;;11.46;70.71
70954;BME280;58618;47.490;8.736;2023-02-20T10:07:54;97592.44;;;11.52;67.60
70954;BME280;58618;47.490;8.736;2023-02-20T10:10:24;97606.44;;;11.66;68.27
70954;BME280;58618;47.490;8.736;2023-02-20T10:13:02;97605.94;;;11.69;68.83
70954;BME280;58618;47.490;8.736;2023-02-20T10:15:37;97606.78;;;11.79;68.85
70954;BME280;58618;47.490;8.736;2023-02-20T10:18:18;97599.84;;;11.85;69.26
70954;BME280;58618;47.490;8.736;2023-02-20T10:20:56;97601.38;;;11.81;67.67
70954;BME280;58618;47.490;8.736;2023-02-20T10:23:35;97594.13;;;11.78;67.83
70954;BME280;58618;47.490;8.736;2023-02-20T10:26:09;97602.91;;;11.77;67.60
70954;BME280;58618;47.490;8.736;2023-02-20T10:28:38;97608.69;;;11.94;67.83
70954;BME280;58618;47.490;8.736;2023-02-20T10:31:15;97586.41;;;11.83;67.33
70954;BME280;58618;47.490;8.736;2023-02-20T10:33:46;97609.75;;;12.03;65.89
70954;BME280;58618;47.490;8.736;2023-02-20T10:36:19;97598.84;;;11.96;65.80
70954;BME280;58618;47.490;8.736;2023-02-20T10:38:53;97609.22;;;12.11;66.50
70954;BME280;58618;47.490;8.736;2023-02-20T10:41:26;97615.47;;;12.10;65.03
70954;BME280;58618;47.490;8.736;2023-02-20T10:43:59;97612.13;;;12.20;67.24
70954;BME280;58618;47.490;8.736;2023-02-20T10:46:32;97615.72;;;12.19;66.76
70954;BME280;58618;47.490;8.736;2023-02-20T10:49:04;97617.25;;;12.10;63.89
70954;BME280;58618;47.490;8.736;2023-02-20T10:51:40;97611.84;;;12.16;64.49
70954;BME280;58618;47.490;8.736;2023-02-20T10:54:13;97609.00;;;12.18;65.52
70954;BME280;58618;47.490;8.736;2023-02-20T10:56:49;97604.13;;;12.32;65.85
70954;BME280;58618;47.490;8.736;2023-02-20T10:59:22;97599.47;;;12.34;65.27
70954;BME280;58618;47.490;8.736;2023-02-20T11:01:55;97598.41;;;12.24;63.83
70954;BME280;58618;47.490;8.736;2023-02-20T11:04:26;97590.13;;;12.27;65.94
70954;BME280;58618;47.490;8.736;2023-02-20T11:06:57;97598.97;;;12.32;65.35
70954;BME280;58618;47.490;8.736;2023-02-20T11:09:26;97570.50;;;12.26;64.66
70954;BME280;58618;47.490;8.736;2023-02-20T11:11:54;97582.91;;;12.24;64.44
70954;BME280;58618;47.490;8.736;2023-02-20T11:14:24;97580.56;;;12.33;65.42
70954;BME280;58618;47.490;8.736;2023-02-20T11:16:56;97572.81;;;12.28;63.45
70954;BME280;58618;47.490;8.736;2023-02-20T11:19:29;97566.06;;;12.22;64.13
70954;BME280;58618;47.490;8.736;2023-02-20T11:21:59;97575.16;;;12.40;65.51
70954;BME280;58618;47.490;8.736;2023-02-20T11:24:33;97558.34;;;12.42;64.31
70954;BME280;58618;47.490;8.736;2023-02-20T11:27:03;97550.84;;;12.31;63.92
70954;BME280;58618;47.490;8.736;2023-02-20T11:29:39;97556.00;;;12.41;65.84
70954;BME280;58618;47.490;8.736;2023-02-20T11:32:28;97547.72;;;12.39;65.09
70954;BME280;58618;47.490;8.736;2023-02-20T11:35:21;97549.28;;;12.50;64.38
70954;BME280;58618;47.490;8.736;2023-02-20T11:38:24;97525.50;;;12.63;63.13
70954;BME280;58618;47.490;8.736;2023-02-20T11:41:07;97531.69;;;12.62;62.42
70954;BME280;58618;47.490;8.736;2023-02-20T11:43:36;97523.94;;;12.62;63.16
70954;BME280;58618;47.490;8.736;2023-02-20T11:46:09;97521.34;;;12.57;63.02
70954;BME280;58618;47.490;8.736;2023-02-20T11:48:57;97503.47;;;12.65;62.21
70954;BME280;58618;47.490;8.736;2023-02-20T11:51:34;97501.88;;;12.80;64.20
70954;BME280;58618;47.490;8.736;2023-02-20T11:54:08;97496.47;;;12.76;62.47
70954;BME280;58618;47.490;8.736;2023-02-20T11:56:35;97493.84;;;12.91;62.98
70954;BME280;58618;47.490;8.736;2023-02-20T11:59:34;97479.84;;;13.02;62.12
70954;BME280;58618;47.490;8.736;2023-02-20T12:02:22;97471.56;;;13.00;61.83
70954;BME280;58618;47.490;8.736;2023-02-20T12:05:02;97468.47;;;12.98;61.37
70954;BME280;58618;47.490;8.736;2023-02-20T12:07:34;97457.31;;;12.98;62.18
70954;BME280;58618;47.490;8.736;2023-02-20T12:12:51;97454.41;;;13.30;60.36
70954;BME280;58618;47.490;8.736;2023-02-20T12:15:22;97451.25;;;13.38;60.70
70954;BME280;58618;47.490;8.736;2023-02-20T12:21:12;97439.84;;;13.39;59.26
70954;BME280;58618;47.490;8.736;2023-02-20T12:23:47;97449.16;;;13.40;59.30
70954;BME280;58618;47.490;8.736;2023-02-20T12:26:28;97437.22;;;13.44;60.89
70954;BME280;58618;47.490;8.736;2023-02-20T12:29:06;97440.59;;;13.44;59.47
70954;BME280;58618;47.490;8.736;2023-02-20T12:31:52;97424.25;;;13.44;60.41
70954;BME280;58618;47.490;8.736;2023-02-20T12:34:38;97423.13;;;13.60;59.66
70954;BME280;58618;47.490;8.736;2023-02-20T12:37:14;97427.53;;;13.60;59.76
70954;BME280;58618;47.490;8.736;2023-02-20T12:39:55;97383.41;;;13.31;57.01
70954;BME280;58618;47.490;8.736;2023-02-20T12:42:31;97405.03;;;13.55;61.58
70954;BME280;58618;47.490;8.736;2023-02-20T12:45:17;97409.09;;;13.66;59.07
70954;BME280;58618;47.490;8.736;2023-02-20T12:47:52;97406.81;;;13.60;59.42
70954;BME280;58618;47.490;8.736;2023-02-20T12:50:39;97405.78;;;13.56;58.38
70954;BME280;58618;47.490;8.736;2023-02-20T12:53:15;97397.28;;;13.50;59.12
70954;BME280;58618;47.490;8.736;2023-02-20T12:55:51;97392.34;;;13.48;60.16
70954;BME280;58618;47.490;8.736;2023-02-20T12:58:29;97380.72;;;13.46;60.54
70954;BME280;58618;47.490;8.736;2023-02-20T13:01:00;97378.69;;;13.43;58.84
70954;BME280;58618;47.490;8.736;2023-02-20T13:03:40;97377.38;;;13.40;58.04
70954;BME280;58618;47.490;8.736;2023-02-20T13:06:10;97372.44;;;13.44;59.54
70954;BME280;58618;47.490;8.736;2023-02-20T13:08:53;97372.28;;;13.64;56.50
70954;BME280;58618;47.490;8.736;2023-02-20T13:11:24;97363.47;;;13.65;57.40
70954;BME280;58618;47.490;8.736;2023-02-20T13:14:03;97353.41;;;13.92;56.96
70954;BME280;58618;47.490;8.736;2023-02-20T13:16:40;97345.59;;;13.98;50.76
70954;BME280;58618;47.490;8.736;2023-02-20T13:19:18;97341.44;;;13.96;54.57
70954;BME280;58618;47.490;8.736;2023-02-20T13:21:48;97327.47;;;13.92;54.33
70954;BME280;58618;47.490;8.736;2023-02-20T13:24:30;97326.44;;;13.93;52.98
70954;BME280;58618;47.490;8.736;2023-02-20T13:27:00;97320.97;;;13.95;51.32
70954;BME280;58618;47.490;8.736;2023-02-20T13:29:34;97329.03;;;13.93;50.36
70954;BME280;58618;47.490;8.736;2023-02-20T13:32:20;97324.84;;;13.98;53.20
70954;BME280;58618;47.490;8.736;2023-02-20T13:34:47;97329.72;;;14.28;51.09
70954;BME280;58618;47.490;8.736;2023-02-20T13:37:51;97321.06;;;14.43;49.00
70954;BME280;58618;47.490;8.736;2023-02-20T13:40:35;97323.34;;;14.44;50.71
70954;BME280;58618;47.490;8.736;2023-02-20T13:43:27;97318.06;;;14.54;51.19